createdAt,value
2023-02-19T00:02:14.143Z,30.02
2023-02-19T00:05:16.607Z,29.55
2023-02-19T00:08:19.059Z,32.67
2023-02-19T00:11:25.792Z,32.90
2023-02-19T00:14:28.233Z,34.07
2023-02-19T00:17:31.868Z,33.90
2023-02-19T00:20:34.311Z,28.25
2023-02-19T00:23:37.419Z,33.38
2023-02-19T00:26:41.223Z,30.87
2023-02-19T00:29:43.573Z,32.97
2023-02-19T00:32:51.513Z,32.00
2023-02-19T00:35:53.858Z,34.40
2023-02-19T00:38:56.657Z,31.35
2023-02-19T00:42:00.997Z,28.80
2023-02-19T00:45:03.440Z,29.10
2023-02-19T00:48:05.865Z,31.75
2023-02-19T00:51:08.443Z,29.73
2023-02-19T00:54:12.349Z,27.08
2023-02-19T00:57:14.659Z,27.63
2023-02-19T01:00:17.142Z,30.57
2023-02-19T01:03:19.674Z,31.12
2023-02-19T01:06:22.593Z,32.25
2023-02-19T01:09:25.252Z,30.90
2023-02-19T01:12:28.363Z,29.83
2023-02-19T01:15:33.113Z,27.93
2023-02-19T01:18:35.896Z,26.60
2023-02-19T01:21:39.897Z,25.62
2023-02-19T01:24:42.338Z,26.30
2023-02-19T01:27:44.799Z,27.50
2023-02-19T01:30:47.328Z,28.27
2023-02-19T01:33:56.807Z,26.00
2023-02-19T01:36:59.530Z,27.33
2023-02-19T01:40:01.933Z,24.52
2023-02-19T01:43:04.364Z,25.20
2023-02-19T01:46:06.766Z,23.30
2023-02-19T01:49:23.770Z,23.87
2023-02-19T01:52:34.709Z,26.17
2023-02-19T01:55:37.509Z,24.92
2023-02-19T01:58:41.076Z,26.27
2023-02-19T02:01:43.589Z,25.63
2023-02-19T02:04:45.953Z,24.83
2023-02-19T02:08:23.937Z,31.08
2023-02-19T02:11:26.932Z,25.73
2023-02-19T02:14:33.734Z,28.00
2023-02-19T02:18:00.666Z,24.97
2023-02-19T02:21:25.245Z,23.45
2023-02-19T02:24:46.576Z,28.42
2023-02-19T02:27:52.796Z,28.15
2023-02-19T02:31:02.901Z,23.43
2023-02-19T02:34:07.490Z,25.40
2023-02-19T02:37:11.378Z,29.35
2023-02-19T02:40:17.081Z,38.75
2023-02-19T02:43:19.461Z,36.28
2023-02-19T02:46:36.242Z,76.90
2023-02-19T02:49:59.206Z,30.47
2023-02-19T02:53:25.264Z,26.08
2023-02-19T02:56:29.017Z,26.05
2023-02-19T02:59:36.091Z,24.58
2023-02-19T03:02:40.337Z,24.13
2023-02-19T03:05:53.431Z,27.30
2023-02-19T03:09:07.166Z,28.20
2023-02-19T03:12:33.869Z,28.77
2023-02-19T03:16:03.892Z,22.40
2023-02-19T03:19:20.682Z,26.47
2023-02-19T03:22:30.143Z,24.23
2023-02-19T03:25:54.756Z,27.75
2023-02-19T03:29:17.304Z,24.67
2023-02-19T03:32:27.244Z,26.60
2023-02-19T03:35:33.419Z,24.90
2023-02-19T03:38:38.469Z,29.60
2023-02-19T03:41:48.162Z,25.62
2023-02-19T03:45:30.303Z,26.62
2023-02-19T03:48:49.074Z,24.40
2023-02-19T03:52:11.491Z,25.73
2023-02-19T03:55:27.179Z,29.33
2023-02-19T03:58:41.183Z,24.48
2023-02-19T04:01:55.629Z,28.50
2023-02-19T04:05:19.241Z,27.70
2023-02-19T04:08:24.635Z,26.20
2023-02-19T04:11:28.263Z,27.63
2023-02-19T04:14:49.394Z,29.40
2023-02-19T04:17:57.610Z,22.73
2023-02-19T04:21:01.091Z,28.95
2023-02-19T04:24:09.280Z,29.17
2023-02-19T04:27:11.845Z,29.33
2023-02-19T04:30:15.464Z,30.52
2023-02-19T04:33:17.775Z,33.33
2023-02-19T04:36:20.068Z,27.00
2023-02-19T04:39:22.463Z,28.77
2023-02-19T04:42:24.767Z,31.10
2023-02-19T04:45:27.078Z,33.58
2023-02-19T04:48:29.768Z,35.45
2023-02-19T04:51:32.569Z,35.75
2023-02-19T04:54:35.018Z,34.20
2023-02-19T04:57:37.414Z,33.10
2023-02-19T05:00:40.395Z,31.40
2023-02-19T05:03:43.029Z,38.10
2023-02-19T05:06:45.355Z,37.42
2023-02-19T05:09:47.581Z,35.53
2023-02-19T05:12:50.194Z,35.17
2023-02-19T05:16:07.142Z,35.80
2023-02-19T05:19:13.006Z,36.58
2023-02-19T05:22:15.338Z,37.40
2023-02-19T05:25:17.917Z,37.20
2023-02-19T05:28:20.825Z,35.43
2023-02-19T05:34:26.404Z,38.50
2023-02-19T05:37:28.897Z,36.35
2023-02-19T05:40:31.286Z,38.67
2023-02-19T05:43:33.689Z,38.20
2023-02-19T05:46:36.171Z,37.97
2023-02-19T05:49:38.602Z,36.47
2023-02-19T05:52:41.287Z,41.20
2023-02-19T05:55:43.566Z,38.67
2023-02-19T05:58:46.122Z,36.70
2023-02-19T06:01:50.995Z,37.10
2023-02-19T06:04:53.243Z,38.70
2023-02-19T06:07:55.554Z,38.25
2023-02-19T06:10:58.564Z,38.40
2023-02-19T06:14:00.968Z,38.50
2023-02-19T06:17:03.229Z,40.72
2023-02-19T06:20:06.804Z,42.40
2023-02-19T06:23:09.173Z,39.83
2023-02-19T06:26:23.296Z,39.13
2023-02-19T06:29:25.693Z,37.37
2023-02-19T06:32:28.160Z,37.45
2023-02-19T06:35:30.454Z,40.28
2023-02-19T06:38:32.881Z,37.22
2023-02-19T06:41:35.394Z,36.87
2023-02-19T06:44:37.899Z,35.97
2023-02-19T06:47:40.224Z,33.45
2023-02-19T06:50:42.877Z,36.78
2023-02-19T06:53:46.521Z,37.70
2023-02-19T06:56:48.919Z,36.57
2023-02-19T06:59:51.631Z,36.80
2023-02-19T07:02:56.777Z,49.95
2023-02-19T07:06:01.033Z,42.42
2023-02-19T07:09:05.754Z,51.53
2023-02-19T07:12:08.553Z,42.90
2023-02-19T07:15:11.097Z,37.03
2023-02-19T07:18:13.685Z,40.22
2023-02-19T07:21:17.462Z,34.75
2023-02-19T07:24:21.774Z,37.97
2023-02-19T07:27:24.148Z,34.47
2023-02-19T07:30:26.719Z,35.17
2023-02-19T07:33:29.082Z,30.90
2023-02-19T07:36:31.349Z,29.50
2023-02-19T07:39:33.988Z,35.38
2023-02-19T07:42:36.244Z,32.83
2023-02-19T07:45:38.672Z,32.33
2023-02-19T07:48:43.073Z,28.90
2023-02-19T07:51:45.459Z,27.83
2023-02-19T07:54:48.659Z,38.58
2023-02-19T07:57:50.975Z,32.03
2023-02-19T08:00:53.420Z,25.57
2023-02-19T08:03:55.880Z,29.73
2023-02-19T08:06:58.150Z,30.00
2023-02-19T08:10:19.649Z,25.80
2023-02-19T08:13:28.264Z,31.10
2023-02-19T08:16:42.574Z,30.30
2023-02-19T08:19:45.448Z,43.72
2023-02-19T08:22:47.841Z,43.28
2023-02-19T08:25:51.210Z,26.35
2023-02-19T08:28:53.686Z,32.77
2023-02-19T08:31:56.096Z,31.33
2023-02-19T08:34:58.453Z,28.95
2023-02-19T08:38:00.855Z,30.77
2023-02-19T08:41:09.144Z,28.77
2023-02-19T08:44:11.800Z,29.63
2023-02-19T08:47:15.145Z,28.20
2023-02-19T08:50:17.624Z,30.58
2023-02-19T08:53:20.241Z,25.27
2023-02-19T08:56:22.670Z,30.08
2023-02-19T08:59:25.044Z,21.40
2023-02-19T09:02:27.423Z,27.20
2023-02-19T09:05:30.135Z,26.00
2023-02-19T09:08:32.512Z,24.02
2023-02-19T09:11:35.003Z,23.95
2023-02-19T09:14:38.463Z,24.03
2023-02-19T09:17:40.893Z,23.50
2023-02-19T09:20:43.299Z,27.35
2023-02-19T09:23:45.652Z,25.55
2023-02-19T09:26:55.117Z,29.40
2023-02-19T09:29:58.006Z,30.67
2023-02-19T09:33:00.373Z,21.23
2023-02-19T09:36:03.743Z,25.00
2023-02-19T09:39:08.007Z,17.35
2023-02-19T09:42:20.910Z,22.92
2023-02-19T09:45:25.773Z,16.97
2023-02-19T09:48:28.285Z,22.90
2023-02-19T09:51:34.091Z,26.42
2023-02-19T09:54:39.913Z,25.45
2023-02-19T09:57:43.944Z,19.67
2023-02-19T10:00:50.065Z,23.43
2023-02-19T10:03:53.166Z,23.23
2023-02-19T10:07:03.644Z,19.80
2023-02-19T10:10:24.692Z,24.35
2023-02-19T10:14:02.217Z,21.52
2023-02-19T10:17:07.771Z,25.20
2023-02-19T10:20:16.369Z,27.30
2023-02-19T10:23:19.781Z,22.83
2023-02-19T10:26:23.338Z,21.23
2023-02-19T10:29:27.738Z,18.25
2023-02-19T10:32:30.315Z,23.20
2023-02-19T10:35:58.395Z,14.60
2023-02-19T10:39:03.259Z,19.73
2023-02-19T10:42:06.649Z,21.27
2023-02-19T10:45:20.538Z,18.40
2023-02-19T10:48:36.846Z,21.93
2023-02-19T10:51:41.847Z,22.87
2023-02-19T10:54:45.868Z,20.95
2023-02-19T10:57:50.632Z,14.82
2023-02-19T11:01:21.731Z,19.12
2023-02-19T11:04:25.310Z,19.87
2023-02-19T11:07:28.032Z,19.50
2023-02-19T11:10:41.267Z,15.18
2023-02-19T11:13:44.147Z,19.98
2023-02-19T11:17:05.889Z,19.23
2023-02-19T11:20:18.148Z,19.85
2023-02-19T11:23:31.865Z,19.17
2023-02-19T11:26:38.543Z,19.98
2023-02-19T11:29:40.975Z,20.20
2023-02-19T11:32:43.413Z,20.58
2023-02-19T11:35:48.534Z,18.17
2023-02-19T11:38:53.283Z,21.03
2023-02-19T11:42:20.383Z,18.05
2023-02-19T11:45:29.429Z,18.95
2023-02-19T11:48:59.228Z,19.67
2023-02-19T11:52:59.610Z,16.05
2023-02-19T11:56:12.345Z,17.37
2023-02-19T11:59:34.155Z,25.95
2023-02-19T12:02:44.446Z,16.17
2023-02-19T12:05:56.008Z,18.60
2023-02-19T12:09:23.366Z,15.25
2023-02-19T12:12:32.362Z,12.73
2023-02-19T12:15:51.374Z,16.83
2023-02-19T12:19:18.881Z,17.55
2023-02-19T12:22:25.236Z,14.87
2023-02-19T12:25:50.755Z,16.27
2023-02-19T12:29:11.598Z,15.53
2023-02-19T12:33:01.786Z,14.98
2023-02-19T12:36:21.220Z,16.98
2023-02-19T12:39:29.446Z,17.20
2023-02-19T12:43:07.501Z,16.52
2023-02-19T12:46:20.880Z,15.03
2023-02-19T12:49:36.713Z,15.23
2023-02-19T12:52:44.473Z,18.55
2023-02-19T12:55:49.074Z,16.25
2023-02-19T12:58:59.426Z,15.45
2023-02-19T13:02:28.734Z,15.03
2023-02-19T13:05:44.405Z,15.73
2023-02-19T13:09:06.273Z,16.55
2023-02-19T13:12:26.629Z,16.23
2023-02-19T13:15:48.726Z,14.77
2023-02-19T13:18:56.537Z,19.53
2023-02-19T13:22:30.491Z,17.37
2023-02-19T13:26:12.274Z,17.02
2023-02-19T13:29:21.453Z,18.92
2023-02-19T13:32:38.686Z,15.90
2023-02-19T13:35:52.523Z,16.27
2023-02-19T13:38:57.789Z,15.10
2023-02-19T13:42:03.119Z,15.38
2023-02-19T13:45:07.476Z,13.20
2023-02-19T13:48:15.272Z,18.12
2023-02-19T13:51:27.844Z,16.80
2023-02-19T13:54:40.796Z,15.93
2023-02-19T13:57:45.269Z,13.13
2023-02-19T14:00:51.893Z,14.93
2023-02-19T14:04:08.328Z,15.15
2023-02-19T14:07:11.914Z,13.47
2023-02-19T14:10:54.848Z,12.43
2023-02-19T14:14:00.109Z,13.40
2023-02-19T14:17:06.159Z,14.40
2023-02-19T14:20:10.246Z,13.35
2023-02-19T14:23:18.514Z,14.30
2023-02-19T14:26:23.414Z,15.32
2023-02-19T14:29:29.347Z,14.50
2023-02-19T14:32:33.713Z,12.13
2023-02-19T14:35:45.830Z,15.23
2023-02-19T14:38:57.136Z,14.67
2023-02-19T14:42:07.326Z,12.27
2023-02-19T14:45:11.355Z,12.18
2023-02-19T14:48:31.859Z,14.27
2023-02-19T14:51:45.287Z,14.05
2023-02-19T14:54:57.031Z,12.27
2023-02-19T14:58:06.398Z,12.93
2023-02-19T15:01:29.013Z,13.05
2023-02-19T15:04:38.012Z,13.00
2023-02-19T15:07:42.795Z,11.93
2023-02-19T15:10:47.632Z,12.43
2023-02-19T15:14:01.653Z,14.63
2023-02-19T15:17:07.309Z,13.95
2023-02-19T15:20:16.930Z,12.73
2023-02-19T15:23:25.758Z,12.52
2023-02-19T15:26:36.337Z,12.00
2023-02-19T15:29:47.052Z,15.30
2023-02-19T15:32:59.410Z,14.27
2023-02-19T15:36:07.367Z,12.57
2023-02-19T15:39:25.136Z,13.62
2023-02-19T15:42:31.317Z,12.83
2023-02-19T15:45:47.474Z,12.98
2023-02-19T15:49:04.460Z,12.50
2023-02-19T15:52:18.866Z,12.37
2023-02-19T15:55:39.461Z,13.57
2023-02-19T15:59:00.100Z,15.50
2023-02-19T16:02:04.998Z,13.70
2023-02-19T16:05:14.423Z,15.65
2023-02-19T16:08:20.856Z,13.85
2023-02-19T16:11:24.045Z,17.67
2023-02-19T16:14:38.593Z,13.37
2023-02-19T16:17:46.330Z,14.02
2023-02-19T16:20:50.193Z,14.65
2023-02-19T16:24:09.718Z,18.58
2023-02-19T16:27:29.243Z,18.25
2023-02-19T16:30:34.559Z,15.70
2023-02-19T16:33:42.316Z,16.20
2023-02-19T16:36:48.898Z,16.70
2023-02-19T16:40:09.339Z,20.88
2023-02-19T16:43:18.278Z,25.55
2023-02-19T16:46:21.572Z,28.40
2023-02-19T16:49:25.698Z,17.37
2023-02-19T16:52:30.669Z,21.15
2023-02-19T16:55:37.167Z,18.27
2023-02-19T16:58:40.733Z,20.02
2023-02-19T17:01:44.807Z,22.87
2023-02-19T17:04:50.396Z,30.52
2023-02-19T17:07:54.927Z,23.12
2023-02-19T17:10:59.979Z,18.85
2023-02-19T17:14:06.556Z,21.37
2023-02-19T17:17:10.569Z,17.33
2023-02-19T17:20:20.343Z,21.60
2023-02-19T17:23:24.583Z,18.92
2023-02-19T17:26:31.022Z,18.45
2023-02-19T17:29:34.720Z,24.30
2023-02-19T17:32:39.497Z,25.73
2023-02-19T17:35:45.147Z,25.52
2023-02-19T17:38:48.747Z,25.52
2023-02-19T17:41:53.039Z,21.37
2023-02-19T17:44:56.803Z,26.37
2023-02-19T17:48:01.380Z,21.83
2023-02-19T17:51:05.064Z,24.37
2023-02-19T17:54:10.156Z,25.45
2023-02-19T17:57:14.249Z,25.80
2023-02-19T18:00:22.210Z,22.83
2023-02-19T18:03:27.022Z,22.40
2023-02-19T18:06:31.048Z,29.37
2023-02-19T18:09:35.049Z,29.48
2023-02-19T18:12:41.397Z,32.90
2023-02-19T18:15:47.414Z,38.53
2023-02-19T18:18:54.123Z,35.77
2023-02-19T18:21:58.769Z,34.67
2023-02-19T18:25:05.182Z,30.05
2023-02-19T18:28:10.537Z,28.30
2023-02-19T18:31:15.084Z,28.67
2023-02-19T18:34:20.280Z,30.70
2023-02-19T18:37:25.449Z,26.62
2023-02-19T18:40:31.499Z,26.27
2023-02-19T18:43:35.613Z,23.67
2023-02-19T18:46:39.011Z,24.07
2023-02-19T18:49:50.511Z,19.70
2023-02-19T18:52:54.378Z,29.02
2023-02-19T18:56:02.828Z,40.33
2023-02-19T18:59:07.039Z,16.30
2023-02-19T19:02:12.064Z,13.87
2023-02-19T19:05:21.708Z,12.23
2023-02-19T19:08:25.697Z,14.07
2023-02-19T19:11:30.177Z,16.15
2023-02-19T19:14:34.665Z,13.93
2023-02-19T19:17:40.799Z,18.10
2023-02-19T19:20:45.405Z,15.67
2023-02-19T19:23:51.056Z,11.18
2023-02-19T19:26:55.217Z,12.55
2023-02-19T19:29:59.154Z,9.48
2023-02-19T19:33:04.411Z,9.77
2023-02-19T19:36:10.583Z,9.73
2023-02-19T19:39:14.521Z,10.68
2023-02-19T19:42:19.532Z,9.98
2023-02-19T19:45:27.874Z,6.45
2023-02-19T19:48:35.002Z,5.17
2023-02-19T19:51:47.798Z,5.73
2023-02-19T19:54:55.542Z,3.25
2023-02-19T19:58:01.374Z,4.47
2023-02-19T20:01:06.902Z,5.03
2023-02-19T20:04:13.961Z,4.00
2023-02-19T20:07:18.472Z,3.93
2023-02-19T20:10:23.328Z,2.97
2023-02-19T20:13:34.523Z,4.95
2023-02-19T20:16:40.193Z,2.55
2023-02-19T20:19:46.061Z,4.17
2023-02-19T20:22:54.954Z,4.77
2023-02-19T20:26:08.408Z,3.17
2023-02-19T20:29:13.877Z,5.10
2023-02-19T20:32:21.260Z,3.22
2023-02-19T20:35:29.689Z,3.13
2023-02-19T20:38:33.444Z,3.33
2023-02-19T20:41:37.614Z,3.40
2023-02-19T20:44:44.150Z,3.45
2023-02-19T20:47:48.652Z,3.42
2023-02-19T20:50:52.555Z,3.47
2023-02-19T20:53:59.633Z,3.43
2023-02-19T20:57:06.491Z,4.22
2023-02-19T21:00:11.837Z,7.00
2023-02-19T21:03:17.318Z,4.18
2023-02-19T21:06:22.437Z,3.13
2023-02-19T21:09:26.669Z,3.93
2023-02-19T21:12:31.137Z,2.62
2023-02-19T21:15:36.138Z,1.90
2023-02-19T21:18:39.428Z,2.22
2023-02-19T21:21:44.638Z,5.03
2023-02-19T21:24:53.294Z,2.47
2023-02-19T21:27:57.235Z,4.00
2023-02-19T21:31:00.225Z,2.70
2023-02-19T21:34:05.527Z,2.65
2023-02-19T21:37:08.720Z,2.97
2023-02-19T21:40:13.375Z,4.27
2023-02-19T21:43:16.679Z,2.97
2023-02-19T21:46:20.435Z,2.65
2023-02-19T21:49:23.861Z,2.85
2023-02-19T21:52:27.247Z,3.07
2023-02-19T21:55:29.617Z,2.20
2023-02-19T21:58:33.860Z,3.65
2023-02-19T22:01:40.710Z,2.53
2023-02-19T22:04:43.203Z,2.83
2023-02-19T22:07:47.277Z,2.53
2023-02-19T22:10:52.225Z,3.43
2023-02-19T22:13:54.553Z,2.50
2023-02-19T22:16:58.172Z,3.37
2023-02-19T22:20:03.288Z,4.20
2023-02-19T22:23:06.607Z,5.00
2023-02-19T22:26:09.089Z,4.73
2023-02-19T22:29:15.210Z,5.12
2023-02-19T22:32:19.098Z,5.60
2023-02-19T22:35:22.458Z,5.40
2023-02-19T22:38:25.608Z,5.53
2023-02-19T22:41:29.183Z,5.57
2023-02-19T22:44:31.575Z,5.53
2023-02-19T22:47:34.912Z,7.57
2023-02-19T22:50:37.992Z,5.75
2023-02-19T22:53:54.305Z,6.30
2023-02-19T22:56:56.891Z,6.73
2023-02-19T23:00:00.081Z,6.05
2023-02-19T23:03:03.876Z,5.40
2023-02-19T23:06:06.698Z,5.70
2023-02-19T23:09:14.614Z,7.00
2023-02-19T23:12:16.953Z,5.43
2023-02-19T23:15:19.289Z,6.68
2023-02-19T23:18:21.693Z,6.12
2023-02-19T23:21:24.079Z,5.28
2023-02-19T23:24:26.528Z,4.27
2023-02-19T23:27:28.829Z,4.13
2023-02-19T23:30:33.383Z,5.43
2023-02-19T23:33:36.270Z,5.20
2023-02-19T23:36:43.442Z,4.20
2023-02-19T23:39:45.776Z,4.43
2023-02-19T23:42:48.166Z,5.13
2023-02-19T23:45:50.842Z,3.97
2023-02-19T23:48:53.377Z,4.37
2023-02-19T23:51:56.036Z,3.05
2023-02-19T23:54:59.146Z,3.10
2023-02-19T23:58:01.568Z,1.70
